sensor_id;sensor_type;location;lat;lon;timestamp;temperature;humidity
10171;DHT22;5127;50.922;6.988;2023-02-27T00:00:27;3.10;58.80
10171;DHT22;5127;50.922;6.988;2023-02-27T00:02:55;3.00;58.60
10171;DHT22;5127;50.922;6.988;2023-02-27T00:05:23;3.00;58.80
10171;DHT22;5127;50.922;6.988;2023-02-27T00:07:50;3.00;58.80
10171;DHT22;5127;50.922;6.988;2023-02-27T00:10:19;3.00;58.80
10171;DHT22;5127;50.922;6.988;2023-02-27T00:12:46;3.00;58.80
10171;DHT22;5127;50.922;6.988;2023-02-27T00:15:16;2.90;58.80
10171;DHT22;5127;50.922;6.988;2023-02-27T00:17:43;2.90;58.90
10171;DHT22;5127;50.922;6.988;2023-02-27T00:20:14;2.90;58.90
10171;DHT22;5127;50.922;6.988;2023-02-27T00:22:42;2.90;58.90
10171;DHT22;5127;50.922;6.988;2023-02-27T00:25:10;2.90;59.00
10171;DHT22;5127;50.922;6.988;2023-02-27T00:27:40;2.90;59.10
10171;DHT22;5127;50.922;6.988;2023-02-27T00:30:10;2.80;59.50
10171;DHT22;5127;50.922;6.988;2023-02-27T00:32:38;2.90;59.70
10171;DHT22;5127;50.922;6.988;2023-02-27T00:35:08;2.80;59.10
10171;DHT22;5127;50.922;6.988;2023-02-27T00:37:36;2.80;59.10
10171;DHT22;5127;50.922;6.988;2023-02-27T00:40:04;2.80;59.10
10171;DHT22;5127;50.922;6.988;2023-02-27T00:42:32;2.80;59.20
10171;DHT22;5127;50.922;6.988;2023-02-27T00:45:03;2.80;59.30
10171;DHT22;5127;50.922;6.988;2023-02-27T00:47:31;2.80;59.20
10171;DHT22;5127;50.922;6.988;2023-02-27T00:49:59;2.70;59.20
10171;DHT22;5127;50.922;6.988;2023-02-27T00:52:26;2.70;59.20
10171;DHT22;5127;50.922;6.988;2023-02-27T00:54:54;2.70;59.30
10171;DHT22;5127;50.922;6.988;2023-02-27T00:57:21;2.70;59.30
10171;DHT22;5127;50.922;6.988;2023-02-27T00:59:49;2.70;59.40
10171;DHT22;5127;50.922;6.988;2023-02-27T01:02:17;2.70;59.50
10171;DHT22;5127;50.922;6.988;2023-02-27T01:04:45;2.60;59.30
10171;DHT22;5127;50.922;6.988;2023-02-27T01:07:12;2.70;59.50
10171;DHT22;5127;50.922;6.988;2023-02-27T01:09:39;2.60;59.50
10171;DHT22;5127;50.922;6.988;2023-02-27T01:12:06;2.60;59.50
10171;DHT22;5127;50.922;6.988;2023-02-27T01:14:34;2.60;59.50
10171;DHT22;5127;50.922;6.988;2023-02-27T01:17:02;2.60;59.50
10171;DHT22;5127;50.922;6.988;2023-02-27T01:19:32;2.50;59.50
10171;DHT22;5127;50.922;6.988;2023-02-27T01:21:59;2.50;59.60
10171;DHT22;5127;50.922;6.988;2023-02-27T01:24:26;2.50;59.60
10171;DHT22;5127;50.922;6.988;2023-02-27T01:26:53;2.50;59.60
10171;DHT22;5127;50.922;6.988;2023-02-27T01:29:21;2.50;59.60
10171;DHT22;5127;50.922;6.988;2023-02-27T01:31:48;2.50;59.60
10171;DHT22;5127;50.922;6.988;2023-02-27T01:34:15;2.40;59.60
10171;DHT22;5127;50.922;6.988;2023-02-27T01:36:44;2.40;59.60
10171;DHT22;5127;50.922;6.988;2023-02-27T01:39:15;2.40;59.60
10171;DHT22;5127;50.922;6.988;2023-02-27T01:41:42;2.30;59.60
10171;DHT22;5127;50.922;6.988;2023-02-27T01:44:11;2.30;59.60
10171;DHT22;5127;50.922;6.988;2023-02-27T01:46:39;2.30;59.60
10171;DHT22;5127;50.922;6.988;2023-02-27T01:49:10;2.30;59.70
10171;DHT22;5127;50.922;6.988;2023-02-27T01:51:41;2.20;59.60
10171;DHT22;5127;50.922;6.988;2023-02-27T01:54:14;2.20;59.70
10171;DHT22;5127;50.922;6.988;2023-02-27T01:56:42;2.20;59.60
10171;DHT22;5127;50.922;6.988;2023-02-27T01:59:10;2.20;59.80
10171;DHT22;5127;50.922;6.988;2023-02-27T02:01:38;2.20;59.80
10171;DHT22;5127;50.922;6.988;2023-02-27T02:04:10;2.10;59.80
10171;DHT22;5127;50.922;6.988;2023-02-27T02:06:43;2.10;59.80
10171;DHT22;5127;50.922;6.988;2023-02-27T02:09:13;2.10;59.90
10171;DHT22;5127;50.922;6.988;2023-02-27T02:11:43;2.00;59.80
10171;DHT22;5127;50.922;6.988;2023-02-27T02:14:10;2.00;59.90
10171;DHT22;5127;50.922;6.988;2023-02-27T02:19:47;2.00;59.90
10171;DHT22;5127;50.922;6.988;2023-02-27T02:22:43;2.00;59.90
10171;DHT22;5127;50.922;6.988;2023-02-27T02:25:46;2.00;59.80
10171;DHT22;5127;50.922;6.988;2023-02-27T02:28:28;1.90;60.00
10171;DHT22;5127;50.922;6.988;2023-02-27T02:31:32;1.90;60.10
10171;DHT22;5127;50.922;6.988;2023-02-27T02:34:37;1.90;60.00
10171;DHT22;5127;50.922;6.988;2023-02-27T02:37:48;1.90;60.10
10171;DHT22;5127;50.922;6.988;2023-02-27T02:40:29;1.90;60.20
10171;DHT22;5127;50.922;6.988;2023-02-27T02:43:06;2.00;60.60
10171;DHT22;5127;50.922;6.988;2023-02-27T02:45:43;1.90;60.60
10171;DHT22;5127;50.922;6.988;2023-02-27T02:48:16;1.90;60.70
10171;DHT22;5127;50.922;6.988;2023-02-27T02:50:50;1.90;60.80
10171;DHT22;5127;50.922;6.988;2023-02-27T02:53:27;1.90;60.70
10171;DHT22;5127;50.922;6.988;2023-02-27T02:56:01;1.90;60.80
10171;DHT22;5127;50.922;6.988;2023-02-27T02:58:34;1.90;60.80
10171;DHT22;5127;50.922;6.988;2023-02-27T03:01:09;1.90;60.90
10171;DHT22;5127;50.922;6.988;2023-02-27T03:03:43;1.90;60.90
10171;DHT22;5127;50.922;6.988;2023-02-27T03:06:14;1.90;61.00
10171;DHT22;5127;50.922;6.988;2023-02-27T03:08:50;1.90;61.00
10171;DHT22;5127;50.922;6.988;2023-02-27T03:11:23;1.90;60.90
10171;DHT22;5127;50.922;6.988;2023-02-27T03:13:54;1.90;61.00
10171;DHT22;5127;50.922;6.988;2023-02-27T03:16:26;1.90;61.10
10171;DHT22;5127;50.922;6.988;2023-02-27T03:18:59;1.90;61.10
10171;DHT22;5127;50.922;6.988;2023-02-27T03:21:33;1.90;61.00
10171;DHT22;5127;50.922;6.988;2023-02-27T03:24:04;1.90;61.10
10171;DHT22;5127;50.922;6.988;2023-02-27T03:26:40;1.90;61.10
10171;DHT22;5127;50.922;6.988;2023-02-27T03:29:12;1.90;61.00
10171;DHT22;5127;50.922;6.988;2023-02-27T03:31:44;1.80;60.90
10171;DHT22;5127;50.922;6.988;2023-02-27T03:34:17;1.80;60.90
10171;DHT22;5127;50.922;6.988;2023-02-27T03:36:50;1.80;61.00
10171;DHT22;5127;50.922;6.988;2023-02-27T03:39:26;1.70;60.90
10171;DHT22;5127;50.922;6.988;2023-02-27T03:42:03;1.70;60.90
10171;DHT22;5127;50.922;6.988;2023-02-27T03:45:00;1.70;61.00
10171;DHT22;5127;50.922;6.988;2023-02-27T03:47:30;1.70;61.10
10171;DHT22;5127;50.922;6.988;2023-02-27T03:49:58;1.60;61.10
10171;DHT22;5127;50.922;6.988;2023-02-27T03:52:27;1.60;61.20
10171;DHT22;5127;50.922;6.988;2023-02-27T03:54:58;1.60;61.10
10171;DHT22;5127;50.922;6.988;2023-02-27T03:57:28;1.60;61.20
10171;DHT22;5127;50.922;6.988;2023-02-27T03:59:57;1.50;61.20
10171;DHT22;5127;50.922;6.988;2023-02-27T04:02:25;1.50;61.20
10171;DHT22;5127;50.922;6.988;2023-02-27T04:04:52;1.50;61.40
10171;DHT22;5127;50.922;6.988;2023-02-27T04:07:47;1.50;61.50
10171;DHT22;5127;50.922;6.988;2023-02-27T04:10:30;1.50;61.40
10171;DHT22;5127;50.922;6.988;2023-02-27T04:13:16;1.40;61.20
10171;DHT22;5127;50.922;6.988;2023-02-27T04:16:04;1.40;61.20
10171;DHT22;5127;50.922;6.988;2023-02-27T04:18:53;1.40;61.10
10171;DHT22;5127;50.922;6.988;2023-02-27T04:21:26;1.40;61.20
10171;DHT22;5127;50.922;6.988;2023-02-27T04:23:58;1.40;61.40
10171;DHT22;5127;50.922;6.988;2023-02-27T04:26:31;1.30;61.40
10171;DHT22;5127;50.922;6.988;2023-02-27T04:29:06;1.30;61.50
10171;DHT22;5127;50.922;6.988;2023-02-27T04:31:41;1.30;61.50
10171;DHT22;5127;50.922;6.988;2023-02-27T04:34:15;1.30;61.40
10171;DHT22;5127;50.922;6.988;2023-02-27T04:36:47;1.30;61.40
10171;DHT22;5127;50.922;6.988;2023-02-27T04:39:20;1.30;61.50
10171;DHT22;5127;50.922;6.988;2023-02-27T04:41:51;1.20;61.40
10171;DHT22;5127;50.922;6.988;2023-02-27T04:44:24;1.20;61.60
10171;DHT22;5127;50.922;6.988;2023-02-27T04:46:53;1.20;61.50
10171;DHT22;5127;50.922;6.988;2023-02-27T04:49:24;1.20;61.70
10171;DHT22;5127;50.922;6.988;2023-02-27T04:51:55;1.20;61.70
10171;DHT22;5127;50.922;6.988;2023-02-27T04:54:26;1.20;61.80
10171;DHT22;5127;50.922;6.988;2023-02-27T04:56:59;1.20;61.80
10171;DHT22;5127;50.922;6.988;2023-02-27T04:59:31;1.20;61.80
10171;DHT22;5127;50.922;6.988;2023-02-27T05:02:01;1.20;61.80
10171;DHT22;5127;50.922;6.988;2023-02-27T05:04:34;1.20;61.90
10171;DHT22;5127;50.922;6.988;2023-02-27T05:07:05;1.20;62.00
10171;DHT22;5127;50.922;6.988;2023-02-27T05:09:39;1.20;62.00
10171;DHT22;5127;50.922;6.988;2023-02-27T05:12:11;1.20;62.00
10171;DHT22;5127;50.922;6.988;2023-02-27T05:14:43;1.10;62.00
10171;DHT22;5127;50.922;6.988;2023-02-27T05:17:16;1.10;62.00
10171;DHT22;5127;50.922;6.988;2023-02-27T05:19:44;1.10;61.90
10171;DHT22;5127;50.922;6.988;2023-02-27T05:22:23;1.10;61.90
10171;DHT22;5127;50.922;6.988;2023-02-27T05:24:58;1.10;61.80
10171;DHT22;5127;50.922;6.988;2023-02-27T05:27:32;1.10;62.00
10171;DHT22;5127;50.922;6.988;2023-02-27T05:30:04;1.10;62.00
10171;DHT22;5127;50.922;6.988;2023-02-27T05:32:38;1.10;62.00
10171;DHT22;5127;50.922;6.988;2023-02-27T05:35:12;1.10;62.10
10171;DHT22;5127;50.922;6.988;2023-02-27T05:37:43;1.10;62.10
10171;DHT22;5127;50.922;6.988;2023-02-27T05:40:15;1.00;62.10
10171;DHT22;5127;50.922;6.988;2023-02-27T05:42:49;1.00;62.10
10171;DHT22;5127;50.922;6.988;2023-02-27T05:45:23;1.00;62.10
10171;DHT22;5127;50.922;6.988;2023-02-27T05:47:54;1.00;62.10
10171;DHT22;5127;50.922;6.988;2023-02-27T05:50:27;1.00;62.20
10171;DHT22;5127;50.922;6.988;2023-02-27T05:52:57;1.00;62.30
10171;DHT22;5127;50.922;6.988;2023-02-27T05:55:30;0.90;62.20
10171;DHT22;5127;50.922;6.988;2023-02-27T05:58:02;1.00;62.30
10171;DHT22;5127;50.922;6.988;2023-02-27T06:00:36;0.90;62.20
10171;DHT22;5127;50.922;6.988;2023-02-27T06:03:05;0.90;62.30
10171;DHT22;5127;50.922;6.988;2023-02-27T06:05:33;1.00;62.40
10171;DHT22;5127;50.922;6.988;2023-02-27T06:08:01;0.90;62.50
10171;DHT22;5127;50.922;6.988;2023-02-27T06:10:28;0.90;62.50
10171;DHT22;5127;50.922;6.988;2023-02-27T06:12:56;0.90;62.50
10171;DHT22;5127;50.922;6.988;2023-02-27T06:15:23;0.90;62.50
10171;DHT22;5127;50.922;6.988;2023-02-27T06:17:51;0.90;62.50
10171;DHT22;5127;50.922;6.988;2023-02-27T06:20:19;0.90;62.60
10171;DHT22;5127;50.922;6.988;2023-02-27T06:22:46;0.90;62.60
10171;DHT22;5127;50.922;6.988;2023-02-27T06:25:14;0.90;62.60
10171;DHT22;5127;50.922;6.988;2023-02-27T06:27:41;0.90;62.60
10171;DHT22;5127;50.922;6.988;2023-02-27T06:30:09;0.90;62.60
10171;DHT22;5127;50.922;6.988;2023-02-27T06:32:36;0.80;62.60
10171;DHT22;5127;50.922;6.988;2023-02-27T06:35:06;0.90;62.60
10171;DHT22;5127;50.922;6.988;2023-02-27T06:37:33;0.80;62.60
10171;DHT22;5127;50.922;6.988;2023-02-27T06:40:01;0.80;62.60
10171;DHT22;5127;50.922;6.988;2023-02-27T06:42:30;0.80;62.90
10171;DHT22;5127;50.922;6.988;2023-02-27T06:44:58;0.90;63.40
10171;DHT22;5127;50.922;6.988;2023-02-27T06:47:25;0.90;63.70
10171;DHT22;5127;50.922;6.988;2023-02-27T06:49:52;1.00;63.80
10171;DHT22;5127;50.922;6.988;2023-02-27T06:52:21;1.10;63.80
10171;DHT22;5127;50.922;6.988;2023-02-27T06:54:48;1.20;63.70
10171;DHT22;5127;50.922;6.988;2023-02-27T06:57:15;1.20;63.40
10171;DHT22;5127;50.922;6.988;2023-02-27T06:59:42;1.30;63.40
10171;DHT22;5127;50.922;6.988;2023-02-27T07:02:11;1.30;63.30
10171;DHT22;5127;50.922;6.988;2023-02-27T07:04:39;1.40;63.30
10171;DHT22;5127;50.922;6.988;2023-02-27T07:07:06;1.40;63.20
10171;DHT22;5127;50.922;6.988;2023-02-27T07:09:35;1.40;63.20
10171;DHT22;5127;50.922;6.988;2023-02-27T07:12:03;1.50;63.30
10171;DHT22;5127;50.922;6.988;2023-02-27T07:14:30;1.50;63.30
10171;DHT22;5127;50.922;6.988;2023-02-27T07:16:57;1.50;63.30
10171;DHT22;5127;50.922;6.988;2023-02-27T07:19:28;1.50;63.30
10171;DHT22;5127;50.922;6.988;2023-02-27T07:21:55;1.60;63.40
10171;DHT22;5127;50.922;6.988;2023-02-27T07:24:22;1.60;63.40
10171;DHT22;5127;50.922;6.988;2023-02-27T07:26:51;1.70;63.50
10171;DHT22;5127;50.922;6.988;2023-02-27T07:29:18;1.70;63.40
10171;DHT22;5127;50.922;6.988;2023-02-27T07:31:45;1.70;63.40
10171;DHT22;5127;50.922;6.988;2023-02-27T07:34:13;1.80;64.30
10171;DHT22;5127;50.922;6.988;2023-02-27T07:36:40;1.90;65.00
10171;DHT22;5127;50.922;6.988;2023-02-27T07:39:08;2.10;65.30
10171;DHT22;5127;50.922;6.988;2023-02-27T07:41:35;2.30;65.30
10171;DHT22;5127;50.922;6.988;2023-02-27T07:44:05;2.50;65.10
10171;DHT22;5127;50.922;6.988;2023-02-27T07:46:33;2.60;64.70
10171;DHT22;5127;50.922;6.988;2023-02-27T07:49:01;2.70;64.30
10171;DHT22;5127;50.922;6.988;2023-02-27T07:51:28;2.80;64.40
10171;DHT22;5127;50.922;6.988;2023-02-27T07:53:56;3.00;65.40
10171;DHT22;5127;50.922;6.988;2023-02-27T07:56:24;3.20;66.40
10171;DHT22;5127;50.922;6.988;2023-02-27T07:58:51;3.50;67.40
10171;DHT22;5127;50.922;6.988;2023-02-27T08:01:19;3.90;68.10
10171;DHT22;5127;50.922;6.988;2023-02-27T08:03:47;4.30;68.60
10171;DHT22;5127;50.922;6.988;2023-02-27T08:06:14;4.70;68.60
10171;DHT22;5127;50.922;6.988;2023-02-27T08:08:41;5.20;69.20
10171;DHT22;5127;50.922;6.988;2023-02-27T08:11:09;5.60;69.20
10171;DHT22;5127;50.922;6.988;2023-02-27T08:13:36;6.00;68.60
10171;DHT22;5127;50.922;6.988;2023-02-27T08:16:04;6.50;68.80
10171;DHT22;5127;50.922;6.988;2023-02-27T08:18:33;6.90;68.60
10171;DHT22;5127;50.922;6.988;2023-02-27T08:21:00;7.30;68.60
10171;DHT22;5127;50.922;6.988;2023-02-27T08:23:29;7.60;68.90
10171;DHT22;5127;50.922;6.988;2023-02-27T08:25:57;8.00;68.70
10171;DHT22;5127;50.922;6.988;2023-02-27T08:28:24;8.40;68.70
10171;DHT22;5127;50.922;6.988;2023-02-27T08:30:52;8.80;67.80
10171;DHT22;5127;50.922;6.988;2023-02-27T08:33:20;9.20;67.40
10171;DHT22;5127;50.922;6.988;2023-02-27T08:35:49;9.50;66.60
10171;DHT22;5127;50.922;6.988;2023-02-27T08:38:16;9.80;64.80
10171;DHT22;5127;50.922;6.988;2023-02-27T08:40:43;10.00;64.00
10171;DHT22;5127;50.922;6.988;2023-02-27T08:43:10;10.10;63.60
10171;DHT22;5127;50.922;6.988;2023-02-27T08:45:37;10.30;63.20
10171;DHT22;5127;50.922;6.988;2023-02-27T08:48:05;10.50;62.80
10171;DHT22;5127;50.922;6.988;2023-02-27T08:50:33;10.60;63.00
10171;DHT22;5127;50.922;6.988;2023-02-27T08:53:01;10.70;62.50
10171;DHT22;5127;50.922;6.988;2023-02-27T08:55:29;10.80;61.30
10171;DHT22;5127;50.922;6.988;2023-02-27T08:57:56;10.80;61.80
10171;DHT22;5127;50.922;6.988;2023-02-27T09:00:23;10.90;62.10
10171;DHT22;5127;50.922;6.988;2023-02-27T09:02:52;10.90;61.30
10171;DHT22;5127;50.922;6.988;2023-02-27T09:05:19;10.90;60.20
10171;DHT22;5127;50.922;6.988;2023-02-27T09:07:47;10.80;60.10
10171;DHT22;5127;50.922;6.988;2023-02-27T09:10:16;10.70;59.40
10171;DHT22;5127;50.922;6.988;2023-02-27T09:12:44;10.60;58.20
10171;DHT22;5127;50.922;6.988;2023-02-27T09:15:11;10.40;58.40
10171;DHT22;5127;50.922;6.988;2023-02-27T09:17:38;10.20;58.20
10171;DHT22;5127;50.922;6.988;2023-02-27T09:20:06;10.00;57.70
10171;DHT22;5127;50.922;6.988;2023-02-27T09:22:34;9.80;58.30
10171;DHT22;5127;50.922;6.988;2023-02-27T09:25:01;9.60;58.00
10171;DHT22;5127;50.922;6.988;2023-02-27T09:27:30;9.30;57.80
10171;DHT22;5127;50.922;6.988;2023-02-27T09:29:57;9.10;57.60
10171;DHT22;5127;50.922;6.988;2023-02-27T09:32:25;8.90;58.00
10171;DHT22;5127;50.922;6.988;2023-02-27T09:34:54;8.70;57.90
10171;DHT22;5127;50.922;6.988;2023-02-27T09:37:21;8.50;58.20
10171;DHT22;5127;50.922;6.988;2023-02-27T09:39:50;8.30;58.10
10171;DHT22;5127;50.922;6.988;2023-02-27T09:42:19;8.20;58.20
10171;DHT22;5127;50.922;6.988;2023-02-27T09:44:50;8.00;57.80
10171;DHT22;5127;50.922;6.988;2023-02-27T09:47:23;7.90;57.70
10171;DHT22;5127;50.922;6.988;2023-02-27T09:49:57;7.70;57.40
10171;DHT22;5127;50.922;6.988;2023-02-27T09:52:26;7.60;57.60
10171;DHT22;5127;50.922;6.988;2023-02-27T09:54:54;7.50;58.30
10171;DHT22;5127;50.922;6.988;2023-02-27T09:57:36;7.40;58.20
10171;DHT22;5127;50.922;6.988;2023-02-27T10:00:16;7.40;57.70
10171;DHT22;5127;50.922;6.988;2023-02-27T10:02:54;7.20;57.70
10171;DHT22;5127;50.922;6.988;2023-02-27T10:05:30;7.20;57.80
10171;DHT22;5127;50.922;6.988;2023-02-27T10:08:05;7.10;58.20
10171;DHT22;5127;50.922;6.988;2023-02-27T10:10:40;7.10;58.10
10171;DHT22;5127;50.922;6.988;2023-02-27T10:13:29;7.00;58.10
10171;DHT22;5127;50.922;6.988;2023-02-27T10:16:02;7.00;57.20
10171;DHT22;5127;50.922;6.988;2023-02-27T10:18:34;6.90;58.20
10171;DHT22;5127;50.922;6.988;2023-02-27T10:21:06;6.90;58.40
10171;DHT22;5127;50.922;6.988;2023-02-27T10:23:39;6.90;58.10
10171;DHT22;5127;50.922;6.988;2023-02-27T10:26:13;6.80;58.30
10171;DHT22;5127;50.922;6.988;2023-02-27T10:28:43;6.80;56.90
10171;DHT22;5127;50.922;6.988;2023-02-27T10:31:15;6.80;58.00
10171;DHT22;5127;50.922;6.988;2023-02-27T10:33:46;6.70;57.50
10171;DHT22;5127;50.922;6.988;2023-02-27T10:36:15;6.70;57.60
10171;DHT22;5127;50.922;6.988;2023-02-27T10:38:45;6.70;57.50
10171;DHT22;5127;50.922;6.988;2023-02-27T10:41:15;6.70;57.90
10171;DHT22;5127;50.922;6.988;2023-02-27T10:43:43;6.60;57.70
10171;DHT22;5127;50.922;6.988;2023-02-27T10:46:14;6.60;58.00
10171;DHT22;5127;50.922;6.988;2023-02-27T10:48:41;6.60;57.20
10171;DHT22;5127;50.922;6.988;2023-02-27T10:51:22;6.60;58.00
10171;DHT22;5127;50.922;6.988;2023-02-27T10:53:50;6.70;57.20
10171;DHT22;5127;50.922;6.988;2023-02-27T10:56:24;6.70;57.80
10171;DHT22;5127;50.922;6.988;2023-02-27T10:59:02;6.70;57.70
10171;DHT22;5127;50.922;6.988;2023-02-27T11:01:42;6.70;56.90
10171;DHT22;5127;50.922;6.988;2023-02-27T11:04:10;6.80;56.90
10171;DHT22;5127;50.922;6.988;2023-02-27T11:06:39;6.80;58.20
10171;DHT22;5127;50.922;6.988;2023-02-27T11:09:10;6.80;58.20
10171;DHT22;5127;50.922;6.988;2023-02-27T11:11:38;6.80;58.10
10171;DHT22;5127;50.922;6.988;2023-02-27T11:14:21;6.90;58.30
10171;DHT22;5127;50.922;6.988;2023-02-27T11:16:53;6.90;57.10
10171;DHT22;5127;50.922;6.988;2023-02-27T11:19:30;7.00;58.00
10171;DHT22;5127;50.922;6.988;2023-02-27T11:22:00;7.00;57.00
10171;DHT22;5127;50.922;6.988;2023-02-27T11:24:27;7.00;57.30
10171;DHT22;5127;50.922;6.988;2023-02-27T11:26:57;7.10;57.80
10171;DHT22;5127;50.922;6.988;2023-02-27T11:29:24;7.10;57.60
10171;DHT22;5127;50.922;6.988;2023-02-27T11:31:56;7.10;57.40
10171;DHT22;5127;50.922;6.988;2023-02-27T11:34:27;7.10;57.00
10171;DHT22;5127;50.922;6.988;2023-02-27T11:36:57;7.20;56.60
10171;DHT22;5127;50.922;6.988;2023-02-27T11:39:30;7.20;56.90
10171;DHT22;5127;50.922;6.988;2023-02-27T11:42:14;7.20;56.90
10171;DHT22;5127;50.922;6.988;2023-02-27T11:44:50;7.20;56.20
10171;DHT22;5127;50.922;6.988;2023-02-27T11:47:24;7.20;56.50
10171;DHT22;5127;50.922;6.988;2023-02-27T11:50:04;7.30;56.70
10171;DHT22;5127;50.922;6.988;2023-02-27T11:52:43;7.30;56.20
10171;DHT22;5127;50.922;6.988;2023-02-27T11:55:14;7.30;56.60
10171;DHT22;5127;50.922;6.988;2023-02-27T11:57:45;7.30;56.80
10171;DHT22;5127;50.922;6.988;2023-02-27T12:00:17;7.40;56.70
10171;DHT22;5127;50.922;6.988;2023-02-27T12:02:51;7.40;56.80
10171;DHT22;5127;50.922;6.988;2023-02-27T12:05:25;7.40;56.30
10171;DHT22;5127;50.922;6.988;2023-02-27T12:07:56;7.50;56.70
10171;DHT22;5127;50.922;6.988;2023-02-27T12:10:27;7.50;56.50
10171;DHT22;5127;50.922;6.988;2023-02-27T12:12:59;7.50;56.90
10171;DHT22;5127;50.922;6.988;2023-02-27T12:15:31;7.50;56.90
10171;DHT22;5127;50.922;6.988;2023-02-27T12:18:12;7.60;56.90
10171;DHT22;5127;50.922;6.988;2023-02-27T12:20:49;7.60;56.20
10171;DHT22;5127;50.922;6.988;2023-02-27T12:23:22;7.60;56.20
10171;DHT22;5127;50.922;6.988;2023-02-27T12:25:57;7.70;56.70
10171;DHT22;5127;50.922;6.988;2023-02-27T12:28:44;7.70;56.10
10171;DHT22;5127;50.922;6.988;2023-02-27T12:31:37;7.70;54.40
10171;DHT22;5127;50.922;6.988;2023-02-27T12:34:14;7.80;55.20
10171;DHT22;5127;50.922;6.988;2023-02-27T12:36:44;7.80;56.30
10171;DHT22;5127;50.922;6.988;2023-02-27T12:39:17;7.80;56.30
10171;DHT22;5127;50.922;6.988;2023-02-27T12:42:00;7.80;56.00
10171;DHT22;5127;50.922;6.988;2023-02-27T12:44:38;7.80;55.80
10171;DHT22;5127;50.922;6.988;2023-02-27T12:47:18;7.90;55.10
10171;DHT22;5127;50.922;6.988;2023-02-27T12:49:53;7.90;55.50
10171;DHT22;5127;50.922;6.988;2023-02-27T12:52:31;7.90;55.10
10171;DHT22;5127;50.922;6.988;2023-02-27T12:55:09;7.90;54.50
10171;DHT22;5127;50.922;6.988;2023-02-27T13:00:36;8.00;54.00
10171;DHT22;5127;50.922;6.988;2023-02-27T13:03:13;8.10;55.60
10171;DHT22;5127;50.922;6.988;2023-02-27T13:05:46;8.10;55.00
10171;DHT22;5127;50.922;6.988;2023-02-27T13:08:41;8.10;54.40
10171;DHT22;5127;50.922;6.988;2023-02-27T13:11:20;8.10;54.50
10171;DHT22;5127;50.922;6.988;2023-02-27T13:13:50;8.20;54.20
10171;DHT22;5127;50.922;6.988;2023-02-27T13:16:21;8.20;54.30
10171;DHT22;5127;50.922;6.988;2023-02-27T13:18:54;8.20;54.60
10171;DHT22;5127;50.922;6.988;2023-02-27T13:21:29;8.20;55.10
10171;DHT22;5127;50.922;6.988;2023-02-27T13:24:09;8.20;55.00
10171;DHT22;5127;50.922;6.988;2023-02-27T13:26:42;8.20;54.30
10171;DHT22;5127;50.922;6.988;2023-02-27T13:29:13;8.30;55.80
10171;DHT22;5127;50.922;6.988;2023-02-27T13:31:47;8.30;54.90
10171;DHT22;5127;50.922;6.988;2023-02-27T13:34:22;8.30;55.10
10171;DHT22;5127;50.922;6.988;2023-02-27T13:36:57;8.30;55.00
10171;DHT22;5127;50.922;6.988;2023-02-27T13:39:40;8.40;55.10
10171;DHT22;5127;50.922;6.988;2023-02-27T13:42:52;8.40;54.20
10171;DHT22;5127;50.922;6.988;2023-02-27T13:45:47;8.40;52.70
10171;DHT22;5127;50.922;6.988;2023-02-27T13:48:40;8.40;54.00
10171;DHT22;5127;50.922;6.988;2023-02-27T13:54:31;8.50;53.80
10171;DHT22;5127;50.922;6.988;2023-02-27T13:59:59;8.50;54.10
10171;DHT22;5127;50.922;6.988;2023-02-27T14:02:41;8.50;54.40
10171;DHT22;5127;50.922;6.988;2023-02-27T14:05:12;8.50;54.50
10171;DHT22;5127;50.922;6.988;2023-02-27T14:08:01;8.50;55.60
10171;DHT22;5127;50.922;6.988;2023-02-27T14:10:31;8.60;54.70
10171;DHT22;5127;50.922;6.988;2023-02-27T14:13:00;8.60;55.50
10171;DHT22;5127;50.922;6.988;2023-02-27T14:15:48;8.70;55.60
10171;DHT22;5127;50.922;6.988;2023-02-27T14:18:49;8.70;54.20
10171;DHT22;5127;50.922;6.988;2023-02-27T14:21:48;8.70;53.80
10171;DHT22;5127;50.922;6.988;2023-02-27T14:24:16;8.70;54.10
10171;DHT22;5127;50.922;6.988;2023-02-27T14:26:46;8.70;55.40
10171;DHT22;5127;50.922;6.988;2023-02-27T14:29:16;8.70;55.00
10171;DHT22;5127;50.922;6.988;2023-02-27T14:31:44;8.70;54.40
10171;DHT22;5127;50.922;6.988;2023-02-27T14:34:15;8.70;55.00
10171;DHT22;5127;50.922;6.988;2023-02-27T14:36:46;8.70;54.00
10171;DHT22;5127;50.922;6.988;2023-02-27T14:39:20;8.70;54.40
10171;DHT22;5127;50.922;6.988;2023-02-27T14:41:57;8.70;53.70
10171;DHT22;5127;50.922;6.988;2023-02-27T14:44:31;8.80;52.80
10171;DHT22;5127;50.922;6.988;2023-02-27T14:47:03;8.80;54.00
10171;DHT22;5127;50.922;6.988;2023-02-27T14:49:32;8.80;54.90
10171;DHT22;5127;50.922;6.988;2023-02-27T14:52:11;8.90;54.90
10171;DHT22;5127;50.922;6.988;2023-02-27T14:54:39;8.90;54.00
10171;DHT22;5127;50.922;6.988;2023-02-27T14:57:15;8.90;55.00
10171;DHT22;5127;50.922;6.988;2023-02-27T14:59:44;9.00;54.00
10171;DHT22;5127;50.922;6.988;2023-02-27T15:02:17;9.00;54.90
10171;DHT22;5127;50.922;6.988;2023-02-27T15:04:46;9.00;53.40
10171;DHT22;5127;50.922;6.988;2023-02-27T15:07:18;9.00;53.50
10171;DHT22;5127;50.922;6.988;2023-02-27T15:09:51;9.00;53.00
10171;DHT22;5127;50.922;6.988;2023-02-27T15:12:21;9.00;52.80
10171;DHT22;5127;50.922;6.988;2023-02-27T15:14:51;9.00;53.50
10171;DHT22;5127;50.922;6.988;2023-02-27T15:17:20;8.90;54.00
10171;DHT22;5127;50.922;6.988;2023-02-27T15:19:51;8.90;54.40
10171;DHT22;5127;50.922;6.988;2023-02-27T15:22:20;8.90;54.10
10171;DHT22;5127;50.922;6.988;2023-02-27T15:24:48;8.90;54.30
10171;DHT22;5127;50.922;6.988;2023-02-27T15:27:17;8.80;54.50
10171;DHT22;5127;50.922;6.988;2023-02-27T15:29:50;8.80;53.90
10171;DHT22;5127;50.922;6.988;2023-02-27T15:32:27;8.80;54.00
10171;DHT22;5127;50.922;6.988;2023-02-27T15:34:55;8.80;53.70
10171;DHT22;5127;50.922;6.988;2023-02-27T15:37:24;8.70;54.50
10171;DHT22;5127;50.922;6.988;2023-02-27T15:39:53;8.70;54.70
10171;DHT22;5127;50.922;6.988;2023-02-27T15:42:24;8.70;55.00
10171;DHT22;5127;50.922;6.988;2023-02-27T15:44:53;8.60;54.70
10171;DHT22;5127;50.922;6.988;2023-02-27T15:47:23;8.60;54.50
10171;DHT22;5127;50.922;6.988;2023-02-27T15:49:53;8.60;54.50
10171;DHT22;5127;50.922;6.988;2023-02-27T15:52:23;8.60;54.40
10171;DHT22;5127;50.922;6.988;2023-02-27T15:54:52;8.50;54.20
10171;DHT22;5127;50.922;6.988;2023-02-27T15:57:20;8.50;54.10
10171;DHT22;5127;50.922;6.988;2023-02-27T15:59:49;8.40;54.50
10171;DHT22;5127;50.922;6.988;2023-02-27T16:02:21;8.40;54.20
10171;DHT22;5127;50.922;6.988;2023-02-27T16:04:49;8.40;54.00
10171;DHT22;5127;50.922;6.988;2023-02-27T16:07:18;8.40;54.10
10171;DHT22;5127;50.922;6.988;2023-02-27T16:09:49;8.30;54.10
10171;DHT22;5127;50.922;6.988;2023-02-27T16:12:27;8.30;54.30
10171;DHT22;5127;50.922;6.988;2023-02-27T16:15:21;8.30;53.20
10171;DHT22;5127;50.922;6.988;2023-02-27T16:18:01;8.30;53.40
10171;DHT22;5127;50.922;6.988;2023-02-27T16:20:38;8.20;53.00
10171;DHT22;5127;50.922;6.988;2023-02-27T16:23:14;8.20;53.00
10171;DHT22;5127;50.922;6.988;2023-02-27T16:25:57;8.20;54.10
10171;DHT22;5127;50.922;6.988;2023-02-27T16:28:28;8.10;54.50
10171;DHT22;5127;50.922;6.988;2023-02-27T16:30:55;8.10;54.10
10171;DHT22;5127;50.922;6.988;2023-02-27T16:33:28;8.10;54.60
10171;DHT22;5127;50.922;6.988;2023-02-27T16:36:21;8.00;54.00
10171;DHT22;5127;50.922;6.988;2023-02-27T16:38:49;8.00;53.20
10171;DHT22;5127;50.922;6.988;2023-02-27T16:41:19;8.00;54.50
10171;DHT22;5127;50.922;6.988;2023-02-27T16:43:47;7.90;54.50
10171;DHT22;5127;50.922;6.988;2023-02-27T16:46:16;7.90;54.50